URKK

Krasnodar International Airport

Krasnodar, Russian Federation
TAF URKK 170758Z 1709/1809 04005G10MPS 9999 BKN011 BKN020CB TEMPO 1709/1718 3100 -SHRA BKN005 BKN020CB FM171800 34003G08MPS 3100 BR BKN011 TEMPO 1718/1806 1000 FZDZ OVC002
Issued Valid From Valid To
Nov-17 @ 07:58 UTC
(an hour ago)
Nov-17 @ 09:00 UTC
(12 minutes ago)
Nov-18 @ 09:00 UTC
(in 24 hours)
Nov-17 @ 09:00 to Nov-17 @ 18:00
TAF URKK 170758Z 1709/1809 04005G10MPS 9999 BKN011 BKN020CB
Wind Visibility Clouds
40° at 10 knots
 Gusting to 19 knots
10,000+ meters
  • Broken at 1,100' AGL
  • Broken at 2,000' AGL
Temporary Nov-17 @ 09:00 to Nov-17 @ 18:00
TEMPO 1709/1718 3100 -SHRA BKN005 BKN020CB
Visibility Clouds Conditions
3,106 meters
  • Broken at 500' AGL
  • Broken at 2,000' AGL
  • Light Rain
Temporary Nov-17 @ 18:00 to Nov-18 @ 06:00
TEMPO 1718/1806 1000 FZDZ OVC002
Visibility Clouds Conditions
998 meters
  • Overcast at 200' AGL
  • Freezing
  • Drizzle
From Nov-17 @ 18:00 to Nov-18 @ 09:00
FM171800 34003G08MPS 3100 BR BKN011
Wind Visibility Clouds Conditions
340° at 6 knots
 Gusting to 16 knots
3,106 meters
  • Broken at 1,100' AGL
  • Mist
TAF URKK 170758Z 1709/1809 04005G10MPS 9999 BKN011 BKN020CB TEMPO 1709/1718 3100 -SHRA BKN005 BKN020CB FM171800 34003G08MPS 3100 BR BKN011 TEMPO 1718/1806 1000 FZDZ OVC002
Issued Nov-17 @ 07:58 UTC
(an hour ago)
Valid From Nov-17 @ 09:00 UTC
(12 minutes ago)
Valid To Nov-18 @ 09:00 UTC
(in 24 hours)
Nov-17 @ 09:00 - Nov-17 @ 18:00
Wind Visibility
40° at 10 knots
 Gusting to 19 knots
10,000+ meters
Clouds
  • Broken at 1,100' AGL
  • Broken at 2,000' AGL
Temporary Nov-17 @ 09:00 - Nov-17 @ 18:00
Clouds
  • Broken at 500' AGL
  • Broken at 2,000' AGL
Conditions
  • Light Rain
Temporary Nov-17 @ 18:00 - Nov-18 @ 06:00
Clouds
  • Overcast at 200' AGL
Conditions
  • Freezing
  • Drizzle
From Nov-17 @ 18:00 - Nov-18 @ 09:00
Wind Visibility
340° at 6 knots
 Gusting to 16 knots
3,106 meters
Clouds
  • Broken at 1,100' AGL
Conditions
  • Mist